Los Angeles, California
Traffic Map
Current Weather Conditions
Los Angeles, California
Overcast
Overcast
66°
Feels Like: 66°
Wind Chill: 66° Ceiling: 800
Heat Index: 66° Visibility: 7mi
Dew Point: 61° Wind: 0mph
Humidity: 84% Direction: ° ()
Pressure: 29.74in Gusts: 0mph
Raw Report DataKCQT 221147Z AUTO 00000KT 7SM OVC008 19/16 A2974 RMK AO2 SLP068 T01890161 10194 20183 51001
Traffic Incident Summary
Active as of:
Severity:
Category:
InformationThere was an issue retrieving the traffic information for this location. Please try a different location or try again shortly.
Advertisements
Track Severe Weather on mobile